Time;durP1;ratioP1;P1;durP2;ratioP2;P2;SDS_P1;SDS_P2;PMS_P1;PMS_P2;Temp;Humidity;BMP_temperature;BMP_pressure;BME280_temperature;BME280_humidity;BME280_pressure;Samples;Min_cycle;Max_cycle;Signal;HPM_P1;HPM_P2
2023/10/28 00:01:13;;;;;;;6.82;5.25;;;19.30;81.30;;;;;;5097465;28;20191;-72
2023/10/28 00:03:40;;;;;;;6.03;5.10;;;19.30;81.30;;;;;;5097110;28;20316;-72
2023/10/28 00:06:07;;;;;;;5.22;4.45;;;19.30;81.30;;;;;;5094854;28;20272;-72
2023/10/28 00:08:36;;;;;;;4.75;4.35;;;19.30;81.20;;;;;;5091844;28;20257;-72
2023/10/28 00:11:04;;;;;;;5.95;4.93;;;19.30;81.30;;;;;;5082637;28;20176;-72
2023/10/28 00:13:30;;;;;;;5.35;4.70;;;19.30;81.30;;;;;;5080688;28;20207;-72
2023/10/28 00:15:57;;;;;;;5.65;4.70;;;19.30;81.20;;;;;;5077686;28;20248;-72
2023/10/28 00:18:24;;;;;;;5.30;4.65;;;19.30;81.20;;;;;;5094739;28;20550;-72
2023/10/28 00:20:49;;;;;;;5.22;4.28;;;19.30;81.30;;;;;;5113062;28;20190;-72
2023/10/28 00:23:15;;;;;;;5.18;4.68;;;19.30;81.20;;;;;;5109571;28;20193;-72
2023/10/28 00:25:42;;;;;;;5.47;4.93;;;19.30;81.30;;;;;;5091851;28;20211;-72
2023/10/28 00:28:08;;;;;;;5.55;4.93;;;19.30;81.30;;;;;;5091566;28;20192;-72
2023/10/28 00:30:33;;;;;;;5.43;4.53;;;19.30;81.20;;;;;;5077288;28;20228;-72
2023/10/28 00:32:59;;;;;;;5.93;4.93;;;19.30;81.20;;;;;;5097311;28;20187;-72
2023/10/28 00:35:30;;;;;;;6.50;4.75;;;19.30;81.30;;;;;;5091251;28;20208;-72
2023/10/28 00:37:57;;;;;;;5.70;5.18;;;19.30;81.30;;;;;;5097440;28;20185;-70
2023/10/28 00:40:32;;;;;;;5.25;4.22;;;19.30;81.30;;;;;;5094689;28;20278;-70
2023/10/28 00:42:59;;;;;;;6.90;5.00;;;19.30;81.20;;;;;;5097060;28;20191;-70
2023/10/28 00:45:26;;;;;;;5.38;4.88;;;19.30;81.20;;;;;;5077895;28;20201;-71
2023/10/28 00:47:56;;;;;;;4.82;4.32;;;19.30;81.20;;;;;;5075281;28;20193;-70
2023/10/28 00:50:23;;;;;;;5.70;4.50;;;19.30;81.20;;;;;;5080131;28;20249;-70
2023/10/28 00:52:54;;;;;;;4.82;4.38;;;19.30;81.20;;;;;;5097090;28;20188;-70
2023/10/28 00:55:22;;;;;;;4.95;4.28;;;19.30;81.10;;;;;;5080101;28;20196;-70
2023/10/28 00:57:48;;;;;;;5.45;4.20;;;19.30;81.10;;;;;;5103339;28;20180;-70
2023/10/28 01:00:20;;;;;;;5.03;4.53;;;19.30;81.20;;;;;;5090507;28;20190;-71
2023/10/28 01:02:47;;;;;;;4.30;3.90;;;19.30;81.10;;;;;;5089351;28;20184;-71
2023/10/28 01:05:14;;;;;;;4.30;3.78;;;19.30;81.20;;;;;;5088906;28;20216;-71
2023/10/28 01:07:46;;;;;;;4.75;4.28;;;19.30;81.20;;;;;;5113433;28;20184;-70
2023/10/28 01:10:23;;;;;;;5.53;3.95;;;19.30;81.20;;;;;;5097339;28;20219;-71
2023/10/28 01:12:48;;;;;;;4.28;3.75;;;19.30;81.10;;;;;;5075220;28;20712;-70
2023/10/28 01:15:15;;;;;;;4.47;3.83;;;19.30;81.00;;;;;;5079893;28;20215;-70
2023/10/28 01:17:42;;;;;;;3.97;3.47;;;19.30;81.10;;;;;;5091370;28;20182;-70
2023/10/28 01:20:10;;;;;;;4.13;3.67;;;19.30;81.10;;;;;;5097002;28;20231;-71
2023/10/28 01:22:37;;;;;;;4.32;3.55;;;19.30;81.20;;;;;;5089219;28;20181;-71
2023/10/28 01:25:03;;;;;;;4.53;3.92;;;19.30;81.10;;;;;;5109157;28;20212;-70
2023/10/28 01:27:28;;;;;;;4.60;3.90;;;19.30;81.10;;;;;;5094671;28;20198;-71
2023/10/28 01:29:55;;;;;;;4.53;4.00;;;19.30;81.10;;;;;;5077267;28;20219;-71
2023/10/28 01:32:21;;;;;;;4.13;3.53;;;19.30;81.00;;;;;;5115075;28;20184;-70
2023/10/28 01:34:53;;;;;;;4.85;4.13;;;19.30;81.00;;;;;;5087098;28;20201;-71
2023/10/28 01:37:20;;;;;;;4.40;4.00;;;19.30;81.10;;;;;;5095646;28;20243;-71
2023/10/28 01:39:52;;;;;;;4.22;3.83;;;19.30;81.10;;;;;;5080782;28;20181;-71
2023/10/28 01:42:20;;;;;;;4.10;3.67;;;19.30;81.00;;;;;;5071172;28;20550;-71
2023/10/28 01:44:49;;;;;;;4.65;3.42;;;19.30;81.10;;;;;;5086838;28;20201;-71
2023/10/28 01:47:16;;;;;;;5.45;4.30;;;19.30;81.00;;;;;;5077790;28;20187;-70
2023/10/28 01:49:42;;;;;;;3.92;3.40;;;19.30;81.00;;;;;;5097674;28;20239;-70
2023/10/28 01:52:11;;;;;;;4.10;3.70;;;19.30;81.10;;;;;;5091381;28;20202;-70
2023/10/28 01:54:37;;;;;;;3.97;3.58;;;19.30;81.00;;;;;;5095620;28;20208;-70
2023/10/28 01:57:06;;;;;;;3.88;3.42;;;19.30;81.00;;;;;;5105611;28;20177;-70
2023/10/28 01:59:39;;;;;;;3.78;3.38;;;19.30;81.20;;;;;;5078328;28;20188;-70
2023/10/28 02:02:07;;;;;;;4.38;3.42;;;19.30;81.00;;;;;;5094125;28;20236;-71
2023/10/28 02:04:34;;;;;;;4.43;3.50;;;19.30;80.90;;;;;;5077915;28;20221;-70
2023/10/28 02:07:01;;;;;;;4.03;3.38;;;19.30;81.00;;;;;;5092459;28;20183;-70
2023/10/28 02:09:33;;;;;;;4.18;3.42;;;19.30;81.00;;;;;;5103579;28;20213;-70
2023/10/28 02:12:04;;;;;;;4.55;3.47;;;19.30;81.00;;;;;;5078225;28;20188;-70
2023/10/28 02:14:30;;;;;;;3.45;3.13;;;19.30;80.90;;;;;;5104260;28;20566;-71
2023/10/28 02:16:56;;;;;;;3.78;3.47;;;19.30;81.00;;;;;;5085278;28;20188;-70
2023/10/28 02:19:22;;;;;;;4.10;3.60;;;19.30;80.90;;;;;;5114215;28;20180;-70
2023/10/28 02:21:49;;;;;;;3.95;3.55;;;19.30;80.90;;;;;;5079281;28;20180;-70
2023/10/28 02:24:19;;;;;;;3.45;3.15;;;19.30;80.90;;;;;;5091301;28;20244;-71
2023/10/28 02:26:45;;;;;;;3.53;3.22;;;19.30;81.00;;;;;;5109577;28;20267;-70
2023/10/28 02:29:12;;;;;;;3.97;3.38;;;19.30;80.90;;;;;;5098423;28;20234;-71
2023/10/28 02:31:39;;;;;;;3.60;3.30;;;19.30;81.00;;;;;;5077474;28;20177;-71
2023/10/28 02:34:07;;;;;;;3.58;3.28;;;19.30;80.90;;;;;;5093344;28;20192;-70
2023/10/28 02:36:33;;;;;;;3.47;3.17;;;19.30;81.00;;;;;;5095817;28;20205;-70
2023/10/28 02:39:00;;;;;;;3.75;3.00;;;19.30;80.90;;;;;;5098246;28;20184;-71
2023/10/28 02:41:26;;;;;;;3.33;3.03;;;19.30;81.00;;;;;;5087183;28;20200;-71
2023/10/28 02:43:52;;;;;;;4.05;3.38;;;19.30;81.00;;;;;;5080609;28;20188;-71
2023/10/28 02:46:25;;;;;;;3.38;3.08;;;19.30;80.90;;;;;;5098246;28;20216;-70
2023/10/28 02:48:54;;;;;;;3.58;3.15;;;19.30;81.00;;;;;;5097627;28;20211;-71
2023/10/28 02:51:19;;;;;;;3.30;3.00;;;19.20;80.90;;;;;;5082549;28;20192;-70
2023/10/28 02:53:45;;;;;;;3.67;3.00;;;19.20;80.70;;;;;;5078161;28;20334;-71
2023/10/28 02:56:11;;;;;;;3.20;2.90;;;19.30;81.00;;;;;;5092255;28;20216;-70
2023/10/28 02:58:38;;;;;;;3.92;3.42;;;19.30;80.90;;;;;;5098717;28;20195;-70
2023/10/28 03:01:12;;;;;;;3.75;3.35;;;19.30;80.90;;;;;;5075948;28;20201;-70
2023/10/28 03:03:41;;;;;;;4.20;2.95;;;19.30;80.90;;;;;;5114027;28;20198;-71
2023/10/28 03:06:07;;;;;;;3.22;2.92;;;19.30;80.90;;;;;;5082158;28;20237;-70
2023/10/28 03:08:33;;;;;;;3.40;3.00;;;19.30;80.80;;;;;;5078536;28;20181;-70
2023/10/28 03:11:00;;;;;;;3.88;2.95;;;19.30;80.80;;;;;;5095913;28;20177;-71
2023/10/28 03:13:26;;;;;;;3.35;2.80;;;19.20;80.70;;;;;;5081852;28;20262;-71
2023/10/28 03:15:51;;;;;;;3.50;3.10;;;19.30;80.90;;;;;;5080899;28;20265;-70
2023/10/28 03:18:17;;;;;;;4.13;3.38;;;19.20;80.70;;;;;;5097742;28;20192;-71
2023/10/28 03:20:43;;;;;;;3.15;2.60;;;19.20;80.70;;;;;;5083285;28;20207;-70
2023/10/28 03:23:09;;;;;;;3.97;2.75;;;19.30;80.90;;;;;;5087914;28;20252;-70
2023/10/28 03:25:35;;;;;;;3.10;2.55;;;19.30;80.80;;;;;;5096865;28;20265;-71
2023/10/28 03:28:01;;;;;;;3.13;2.78;;;19.20;80.70;;;;;;5089041;28;20188;-70
2023/10/28 03:30:28;;;;;;;3.42;2.88;;;19.30;80.90;;;;;;5081496;28;20215;-70
2023/10/28 03:32:53;;;;;;;3.53;3.00;;;19.30;80.80;;;;;;5090662;28;20185;-70
2023/10/28 03:35:20;;;;;;;2.92;2.63;;;19.20;80.70;;;;;;5079960;28;20208;-70
2023/10/28 03:37:46;;;;;;;3.22;2.75;;;19.30;80.80;;;;;;5098990;28;20200;-72
2023/10/28 03:40:12;;;;;;;2.92;2.63;;;19.30;80.80;;;;;;5114408;28;20200;-71
2023/10/28 03:42:38;;;;;;;2.67;2.45;;;19.20;80.80;;;;;;5098313;28;20210;-71
2023/10/28 03:45:07;;;;;;;2.80;2.25;;;19.30;80.80;;;;;;5093659;28;20233;-70
2023/10/28 03:47:38;;;;;;;2.80;2.47;;;19.30;80.80;;;;;;5112522;27;20651;-70
2023/10/28 03:50:04;;;;;;;3.08;2.30;;;19.30;80.80;;;;;;5110418;28;20276;-70
2023/10/28 03:52:31;;;;;;;2.80;2.42;;;19.20;80.60;;;;;;5111505;28;20184;-71
2023/10/28 03:54:57;;;;;;;4.20;2.80;;;19.20;80.60;;;;;;5067801;28;20204;-70
2023/10/28 03:57:22;;;;;;;3.47;2.80;;;19.30;80.70;;;;;;5089241;28;20192;-71
2023/10/28 03:59:49;;;;;;;2.85;2.38;;;19.30;80.70;;;;;;5089877;28;20219;-70
2023/10/28 04:02:17;;;;;;;2.75;2.47;;;19.30;80.80;;;;;;5087960;28;20189;-70
2023/10/28 04:04:43;;;;;;;3.05;2.58;;;19.20;80.60;;;;;;5107828;28;20242;-70
2023/10/28 04:07:10;;;;;;;2.97;2.67;;;19.30;80.70;;;;;;5095023;28;20187;-71
2023/10/28 04:09:37;;;;;;;3.05;2.55;;;19.20;80.70;;;;;;5096319;28;20719;-71
2023/10/28 04:12:06;;;;;;;2.90;2.33;;;19.20;80.70;;;;;;5116017;28;20180;-71
2023/10/28 04:14:35;;;;;;;3.08;2.25;;;19.30;80.80;;;;;;5094721;28;20212;-70
2023/10/28 04:17:04;;;;;;;2.58;2.38;;;19.30;80.70;;;;;;5095071;28;20267;-70
2023/10/28 04:19:30;;;;;;;2.80;2.60;;;19.30;80.70;;;;;;5107882;28;20188;-70
2023/10/28 04:21:56;;;;;;;2.55;2.35;;;19.30;80.70;;;;;;5072420;28;20191;-71
2023/10/28 04:24:23;;;;;;;2.53;2.33;;;19.20;80.60;;;;;;5108789;28;20188;-70
2023/10/28 04:26:49;;;;;;;2.60;2.03;;;19.20;80.60;;;;;;5081252;28;20237;-71
2023/10/28 04:29:15;;;;;;;2.50;2.30;;;19.20;80.60;;;;;;5096991;28;20220;-71
2023/10/28 04:31:41;;;;;;;2.67;2.10;;;19.30;80.70;;;;;;5110053;28;20276;-71
2023/10/28 04:34:06;;;;;;;2.90;2.60;;;19.30;80.70;;;;;;5092437;28;20684;-70
2023/10/28 04:36:33;;;;;;;2.88;2.30;;;19.20;80.50;;;;;;5094848;28;20288;-71
2023/10/28 04:38:58;;;;;;;3.83;2.42;;;19.20;80.60;;;;;;5097661;28;20267;-71
2023/10/28 04:41:24;;;;;;;3.05;2.30;;;19.20;80.60;;;;;;5087674;28;20287;-71
2023/10/28 04:43:50;;;;;;;2.72;2.10;;;19.30;80.60;;;;;;5095227;28;20655;-71
2023/10/28 04:46:15;;;;;;;2.40;2.20;;;19.20;80.40;;;;;;5080803;28;20268;-70
2023/10/28 04:48:46;;;;;;;2.90;2.45;;;19.30;80.60;;;;;;5081008;28;20184;-71
2023/10/28 04:51:13;;;;;;;2.80;2.22;;;19.20;80.40;;;;;;5105236;28;20195;-70
2023/10/28 04:53:39;;;;;;;2.58;2.38;;;19.30;80.50;;;;;;5096493;28;20276;-71
2023/10/28 04:56:08;;;;;;;2.38;2.17;;;19.30;80.50;;;;;;5094045;28;20239;-70
2023/10/28 04:58:35;;;;;;;2.67;2.35;;;19.30;80.50;;;;;;5095035;28;20181;-71
2023/10/28 05:01:00;;;;;;;2.60;2.08;;;19.20;80.40;;;;;;5081857;28;20176;-70
2023/10/28 05:03:26;;;;;;;2.47;2.10;;;19.20;80.40;;;;;;5077892;28;20192;-71
2023/10/28 05:05:52;;;;;;;2.33;2.13;;;19.20;80.50;;;;;;5109761;28;20216;-71
2023/10/28 05:08:17;;;;;;;3.17;2.50;;;19.20;80.40;;;;;;5112288;28;20199;-70
2023/10/28 05:10:43;;;;;;;2.63;2.03;;;19.20;80.50;;;;;;5109489;28;20216;-70
2023/10/28 05:13:10;;;;;;;2.50;2.30;;;19.20;80.50;;;;;;5076755;28;20191;-70
2023/10/28 05:15:36;;;;;;;2.90;2.50;;;19.30;80.60;;;;;;5078062;28;20220;-70
2023/10/28 05:18:02;;;;;;;3.17;1.98;;;19.20;80.50;;;;;;5088574;28;20185;-71
2023/10/28 05:20:28;;;;;;;2.38;2.17;;;19.30;80.50;;;;;;5088686;28;20191;-70
2023/10/28 05:22:54;;;;;;;2.50;2.20;;;19.20;80.40;;;;;;5070235;28;20185;-70
2023/10/28 05:25:20;;;;;;;2.13;1.92;;;19.20;80.40;;;;;;5110479;28;20200;-72
2023/10/28 05:27:45;;;;;;;2.40;2.08;;;19.20;80.40;;;;;;5100226;28;20187;-73
2023/10/28 05:30:12;;;;;;;2.55;2.05;;;19.30;80.50;;;;;;5095119;28;20216;-73
2023/10/28 05:32:39;;;;;;;3.25;2.00;;;19.30;80.50;;;;;;5095453;28;20195;-73
2023/10/28 05:35:08;;;;;;;2.28;2.05;;;19.20;80.40;;;;;;5088197;28;20197;-72
2023/10/28 05:37:34;;;;;;;2.78;1.70;;;19.20;80.40;;;;;;5092225;28;20189;-72
2023/10/28 05:39:59;;;;;;;3.05;2.38;;;19.30;80.40;;;;;;5074567;28;20187;-73
2023/10/28 05:42:25;;;;;;;2.58;2.10;;;19.20;80.40;;;;;;5105350;28;20192;-72
2023/10/28 05:44:51;;;;;;;2.45;1.83;;;19.20;80.30;;;;;;5112178;28;20208;-73
2023/10/28 05:47:16;;;;;;;2.13;1.75;;;19.20;80.30;;;;;;5088673;28;20188;-73
2023/10/28 05:49:42;;;;;;;2.33;1.75;;;19.20;80.40;;;;;;5079644;28;20234;-73
2023/10/28 05:52:09;;;;;;;3.00;2.22;;;19.20;80.30;;;;;;5113916;28;20186;-72
2023/10/28 05:54:35;;;;;;;2.42;2.00;;;19.30;80.30;;;;;;5113382;28;20215;-73
2023/10/28 05:57:01;;;;;;;3.33;2.47;;;19.30;80.40;;;;;;5091879;28;20184;-72
2023/10/28 05:59:27;;;;;;;3.05;2.10;;;19.20;80.30;;;;;;5079561;28;20183;-72
2023/10/28 06:01:53;;;;;;;2.15;1.80;;;19.30;80.40;;;;;;5117620;28;20244;-72
2023/10/28 06:04:21;;;;;;;2.95;2.08;;;19.20;80.40;;;;;;5091106;28;20196;-73
2023/10/28 06:06:48;;;;;;;3.22;2.05;;;19.20;80.40;;;;;;5088952;28;20185;-72
2023/10/28 06:09:15;;;;;;;2.05;1.85;;;19.20;80.40;;;;;;5096679;28;20222;-72
2023/10/28 06:11:41;;;;;;;3.30;1.90;;;19.20;80.40;;;;;;5100383;28;20188;-72
2023/10/28 06:14:08;;;;;;;2.67;1.73;;;19.20;80.30;;;;;;5092225;28;20337;-73
2023/10/28 06:16:34;;;;;;;3.67;2.22;;;19.20;80.40;;;;;;5100155;28;20674;-72
2023/10/28 06:19:00;;;;;;;2.67;2.40;;;19.20;80.30;;;;;;5096987;28;20196;-73
2023/10/28 06:21:26;;;;;;;2.67;2.38;;;19.30;80.30;;;;;;5114912;28;20192;-73
2023/10/28 06:23:52;;;;;;;2.88;2.20;;;19.20;80.20;;;;;;5072544;28;20187;-72
2023/10/28 06:26:19;;;;;;;2.70;2.03;;;19.30;80.40;;;;;;5114581;28;20211;-73
2023/10/28 06:28:45;;;;;;;2.72;2.17;;;19.30;80.40;;;;;;5080209;28;20189;-72
2023/10/28 06:31:12;;;;;;;2.85;2.10;;;19.20;80.30;;;;;;5071582;28;20573;-72
2023/10/28 06:33:37;;;;;;;2.30;2.08;;;19.30;80.30;;;;;;5079776;28;20218;-73
2023/10/28 06:36:03;;;;;;;2.72;2.17;;;19.20;80.30;;;;;;5086517;28;20192;-73
2023/10/28 06:38:30;;;;;;;2.17;1.90;;;19.30;80.30;;;;;;5074717;28;20189;-73
2023/10/28 06:40:57;;;;;;;2.22;2.03;;;19.30;80.30;;;;;;5099770;28;20626;-72
2023/10/28 06:43:23;;;;;;;2.53;2.03;;;19.20;80.10;;;;;;5116870;28;20267;-73
2023/10/28 06:45:49;;;;;;;2.45;1.90;;;19.20;80.20;;;;;;5075645;28;20200;-73
2023/10/28 06:48:17;;;;;;;2.20;2.00;;;19.20;80.20;;;;;;5097317;28;20244;-73
2023/10/28 06:50:44;;;;;;;2.53;2.20;;;19.30;80.30;;;;;;5086419;28;20208;-73
2023/10/28 06:53:10;;;;;;;2.00;1.80;;;19.30;80.20;;;;;;5079086;28;20188;-73
2023/10/28 06:55:36;;;;;;;2.33;1.90;;;19.30;80.30;;;;;;5097252;28;20212;-73
2023/10/28 06:58:02;;;;;;;2.50;2.05;;;19.30;80.30;;;;;;5099764;28;20196;-72
2023/10/28 07:00:28;;;;;;;2.05;1.70;;;19.20;80.20;;;;;;5090053;28;20203;-73
2023/10/28 07:02:58;;;;;;;3.30;2.40;;;19.30;80.30;;;;;;5079890;28;20189;-73
2023/10/28 07:05:27;;;;;;;2.85;2.10;;;19.20;80.20;;;;;;5088559;28;20223;-72
2023/10/28 07:07:56;;;;;;;2.53;2.15;;;19.20;81.00;;;;;;5087705;28;20173;-73
2023/10/28 07:10:22;;;;;;;2.80;1.98;;;19.30;80.30;;;;;;5106086;28;20214;-73
2023/10/28 07:12:49;;;;;;;2.60;2.00;;;19.20;80.10;;;;;;5093690;28;20191;-73
2023/10/28 07:15:15;;;;;;;2.13;1.92;;;19.30;80.20;;;;;;5117268;28;20266;-71
2023/10/28 07:17:43;;;;;;;3.40;1.67;;;19.20;80.10;;;;;;5117183;28;20180;-72
2023/10/28 07:20:09;;;;;;;2.13;1.80;;;19.20;80.10;;;;;;5097258;28;20188;-71
2023/10/28 07:22:35;;;;;;;2.50;2.17;;;19.20;80.10;;;;;;5115153;28;20187;-72
2023/10/28 07:25:01;;;;;;;2.45;2.00;;;19.20;80.10;;;;;;5072881;28;20242;-71
2023/10/28 07:27:27;;;;;;;2.08;1.88;;;19.30;80.20;;;;;;5094761;28;20188;-71
2023/10/28 07:29:53;;;;;;;2.65;2.00;;;19.30;80.30;;;;;;5093977;28;20208;-71
2023/10/28 07:32:19;;;;;;;2.42;2.20;;;19.30;80.20;;;;;;5092966;28;20660;-71
2023/10/28 07:34:45;;;;;;;2.08;1.83;;;19.30;80.20;;;;;;5089363;28;20212;-71
2023/10/28 07:37:11;;;;;;;2.03;1.83;;;19.30;80.20;;;;;;5090968;28;20203;-71
2023/10/28 07:39:38;;;;;;;2.33;2.13;;;19.30;80.20;;;;;;5081183;28;20180;-71
2023/10/28 07:42:04;;;;;;;2.20;1.63;;;19.30;80.10;;;;;;5081619;28;20257;-71
2023/10/28 07:44:30;;;;;;;1.77;1.60;;;19.30;80.10;;;;;;5113797;28;20180;-71
2023/10/28 07:46:56;;;;;;;2.03;1.83;;;19.30;80.20;;;;;;5089424;28;20210;-71
2023/10/28 07:49:22;;;;;;;1.52;1.42;;;19.30;80.10;;;;;;5087543;28;20223;-72
2023/10/28 07:51:48;;;;;;;2.03;1.70;;;19.30;80.10;;;;;;5116521;28;20188;-72
2023/10/28 07:54:14;;;;;;;2.13;1.80;;;19.30;80.10;;;;;;5086272;28;20185;-71
2023/10/28 07:56:42;;;;;;;2.15;1.95;;;19.30;80.10;;;;;;5093840;28;20191;-71
2023/10/28 07:59:09;;;;;;;1.90;1.80;;;19.30;80.00;;;;;;5092827;28;20188;-72
2023/10/28 08:01:35;;;;;;;1.63;1.52;;;19.40;80.10;;;;;;5097841;28;20264;-71
2023/10/28 08:04:06;;;;;;;1.70;1.60;;;19.30;80.10;;;;;;5098051;28;20235;-71
2023/10/28 08:06:33;;;;;;;2.20;1.63;;;19.40;80.20;;;;;;5095775;28;20275;-71
2023/10/28 08:08:59;;;;;;;2.92;1.48;;;19.40;81.00;;;;;;5085369;28;20257;-71
2023/10/28 08:11:27;;;;;;;2.08;1.90;;;19.30;80.00;;;;;;5078746;28;20694;-72
2023/10/28 08:13:55;;;;;;;2.05;1.85;;;19.30;80.00;;;;;;5091706;28;20177;-72
2023/10/28 08:16:23;;;;;;;1.45;1.30;;;19.40;80.00;;;;;;5099278;28;20274;-72
2023/10/28 08:18:49;;;;;;;1.98;1.58;;;19.40;80.10;;;;;;5071258;28;20220;-72
2023/10/28 08:21:16;;;;;;;2.45;1.92;;;19.40;80.10;;;;;;5090567;28;20184;-72
2023/10/28 08:23:43;;;;;;;2.10;1.90;;;19.40;80.00;;;;;;5109537;28;20176;-72
2023/10/28 08:26:11;;;;;;;1.90;1.60;;;19.40;79.90;;;;;;5088496;28;20265;-72
2023/10/28 08:28:38;;;;;;;1.70;1.60;;;19.40;80.10;;;;;;5096817;28;20279;-72
2023/10/28 08:31:11;;;;;;;1.67;1.58;;;19.40;79.90;;;;;;5087315;28;20206;-72
2023/10/28 08:33:41;;;;;;;1.92;1.67;;;19.40;79.90;;;;;;5080604;28;20195;-72
2023/10/28 08:36:09;;;;;;;1.40;1.30;;;19.40;79.90;;;;;;5081573;28;20223;-72
2023/10/28 08:38:37;;;;;;;1.55;1.45;;;19.40;80.00;;;;;;5096827;28;20263;-72
2023/10/28 08:41:04;;;;;;;2.40;1.83;;;19.50;79.90;;;;;;5076046;28;20188;-72
2023/10/28 08:43:37;;;;;;;2.17;1.67;;;19.40;79.90;;;;;;5072551;28;20180;-72
2023/10/28 08:46:04;;;;;;;2.50;1.80;;;19.50;80.10;;;;;;5078724;28;20283;-72
2023/10/28 08:48:33;;;;;;;1.80;1.70;;;19.50;80.00;;;;;;5071575;28;20270;-72
2023/10/28 08:51:00;;;;;;;1.75;1.65;;;19.50;80.00;;;;;;5087532;28;20189;-71
2023/10/28 08:53:27;;;;;;;1.90;1.70;;;19.50;79.80;;;;;;5105012;28;20218;-72
2023/10/28 08:55:53;;;;;;;1.88;1.60;;;19.50;79.90;;;;;;5088353;28;20215;-72
2023/10/28 08:58:21;;;;;;;1.63;1.45;;;19.50;79.80;;;;;;5071984;28;20192;-73
2023/10/28 09:00:48;;;;;;;2.10;1.73;;;19.50;79.80;;;;;;5112767;28;20194;-72
2023/10/28 09:03:16;;;;;;;2.05;1.73;;;19.50;79.70;;;;;;5080331;28;20184;-72
2023/10/28 09:05:42;;;;;;;1.88;1.50;;;19.50;79.70;;;;;;5103503;28;20211;-72
2023/10/28 09:08:09;;;;;;;1.98;1.50;;;19.50;79.70;;;;;;5092281;28;20192;-72
2023/10/28 09:10:37;;;;;;;2.45;1.50;;;19.50;79.70;;;;;;5114393;28;20307;-71
2023/10/28 09:13:07;;;;;;;2.47;1.88;;;19.50;79.70;;;;;;5074403;28;20172;-71
2023/10/28 09:15:37;;;;;;;2.13;1.77;;;19.50;79.70;;;;;;5108503;28;20207;-72
2023/10/28 09:18:03;;;;;;;2.13;1.45;;;19.50;79.80;;;;;;5073853;28;20252;-71
2023/10/28 09:20:29;;;;;;;1.65;1.40;;;19.50;79.60;;;;;;5090117;28;20188;-71
2023/10/28 09:22:56;;;;;;;2.03;1.35;;;19.50;79.50;;;;;;5096223;28;20184;-71
2023/10/28 09:25:22;;;;;;;1.45;1.30;;;19.50;79.50;;;;;;5108129;28;20209;-72
2023/10/28 09:27:48;;;;;;;1.50;1.40;;;19.50;79.50;;;;;;5094244;28;20224;-71
2023/10/28 09:30:15;;;;;;;2.05;1.60;;;19.50;79.70;;;;;;5106607;28;20239;-71
2023/10/28 09:32:41;;;;;;;1.65;1.55;;;19.50;79.60;;;;;;5090174;28;20180;-71
2023/10/28 09:35:11;;;;;;;2.13;1.50;;;19.60;79.80;;;;;;5091006;28;20203;-71
2023/10/28 09:37:39;;;;;;;1.50;1.40;;;19.60;79.80;;;;;;5097004;28;20280;-72
2023/10/28 09:40:07;;;;;;;1.98;1.70;;;19.60;79.80;;;;;;5108224;28;20248;-71
2023/10/28 09:42:37;;;;;;;1.40;1.30;;;19.60;79.80;;;;;;5078729;28;20545;-69
2023/10/28 09:45:06;;;;;;;1.85;1.50;;;19.60;79.60;;;;;;5104120;28;20200;-70
2023/10/28 09:47:57;;;;;;;1.35;1.25;;;19.60;79.70;;;;;;5114658;28;20191;-69
2023/10/28 09:50:27;;;;;;;1.45;1.23;;;19.60;79.70;;;;;;5108701;28;20217;-70
2023/10/28 09:52:56;;;;;;;2.03;1.65;;;19.60;79.70;;;;;;5079158;28;20179;-71
2023/10/28 09:55:36;;;;;;;3.53;1.42;;;19.60;79.60;;;;;;5090589;28;20215;-71
2023/10/28 09:58:18;;;;;;;1.42;1.33;;;19.60;79.70;;;;;;5079490;28;20183;-71
2023/10/28 10:00:48;;;;;;;1.40;1.30;;;19.60;79.70;;;;;;5085136;28;20187;-71
2023/10/28 10:03:44;;;;;;;2.17;1.35;;;19.60;79.70;;;;;;5093059;28;20280;-71
2023/10/28 10:06:11;;;;;;;1.38;1.20;;;19.60;79.80;;;;;;5109986;28;20216;-71
2023/10/28 10:08:49;;;;;;;1.88;1.23;;;19.60;79.80;;;;;;5097200;28;20185;-71
2023/10/28 10:11:25;;;;;;;1.52;1.40;;;19.60;79.60;;;;;;5106848;28;20180;-70
2023/10/28 10:13:52;;;;;;;1.73;1.38;;;19.60;79.70;;;;;;5094376;28;20313;-71
2023/10/28 10:17:00;;;;;;;2.00;1.60;;;19.60;79.80;;;;;;5106787;28;20204;-71
2023/10/28 10:19:34;;;;;;;2.35;1.25;;;19.60;79.60;;;;;;5085797;28;20385;-71
2023/10/28 10:22:06;;;;;;;2.70;1.40;;;19.60;79.70;;;;;;5069149;28;20194;-71
2023/10/28 10:24:32;;;;;;;1.40;1.30;;;19.60;79.70;;;;;;5096142;28;20188;-70
2023/10/28 10:27:03;;;;;;;2.60;1.48;;;19.60;79.70;;;;;;5087960;28;20251;-71
2023/10/28 10:29:41;;;;;;;1.63;1.52;;;19.60;79.70;;;;;;5085982;28;20580;-71
2023/10/28 10:32:16;;;;;;;2.00;1.40;;;19.60;79.80;;;;;;5092373;28;20259;-71
2023/10/28 10:34:45;;;;;;;1.95;1.20;;;19.60;79.80;;;;;;5110438;28;20199;-71
2023/10/28 10:37:25;;;;;;;2.60;1.50;;;19.60;79.60;;;;;;5087251;28;20263;-71
2023/10/28 10:39:52;;;;;;;1.67;1.27;;;19.60;79.70;;;;;;5094099;28;20184;-71
2023/10/28 10:42:19;;;;;;;1.58;1.27;;;19.60;79.50;;;;;;5075644;28;20225;-71
2023/10/28 10:44:46;;;;;;;2.10;1.60;;;19.60;79.70;;;;;;5092761;28;20243;-71
2023/10/28 10:47:17;;;;;;;1.70;1.33;;;19.60;79.70;;;;;;5093152;28;20184;-71
2023/10/28 10:49:43;;;;;;;1.83;1.25;;;19.60;79.70;;;;;;5092196;28;20260;-71
2023/10/28 10:52:09;;;;;;;2.40;1.30;;;19.60;79.80;;;;;;5095018;28;20212;-71
2023/10/28 10:54:38;;;;;;;1.75;1.17;;;19.60;79.70;;;;;;5094316;28;20261;-71
2023/10/28 10:57:06;;;;;;;1.38;1.20;;;19.60;80.50;;;;;;5117680;28;20274;-71
2023/10/28 10:59:34;;;;;;;1.40;1.30;;;19.60;79.80;;;;;;5094830;28;20561;-71
2023/10/28 11:02:02;;;;;;;1.42;1.33;;;19.60;79.80;;;;;;5117798;28;20226;-71
2023/10/28 11:04:30;;;;;;;1.50;1.25;;;19.60;79.70;;;;;;5097285;28;20264;-71
2023/10/28 11:06:57;;;;;;;1.67;1.20;;;19.60;79.70;;;;;;5099243;28;20188;-70
2023/10/28 11:09:23;;;;;;;1.67;1.42;;;19.60;79.60;;;;;;5099178;28;20273;-71
2023/10/28 11:11:50;;;;;;;1.60;1.20;;;19.60;79.60;;;;;;5117280;28;20180;-71
2023/10/28 11:14:16;;;;;;;1.63;1.20;;;19.60;79.50;;;;;;5082575;28;20189;-70
2023/10/28 11:16:43;;;;;;;1.30;1.20;;;19.60;79.70;;;;;;5108811;28;20184;-71
2023/10/28 11:19:11;;;;;;;1.92;1.48;;;19.60;79.60;;;;;;5099440;28;20214;-71
2023/10/28 11:21:41;;;;;;;2.00;1.10;;;19.60;79.50;;;;;;5082269;28;20198;-71
2023/10/28 11:24:12;;;;;;;1.27;1.15;;;19.60;79.70;;;;;;5116965;28;20188;-71
2023/10/28 11:26:37;;;;;;;1.65;1.30;;;19.60;79.80;;;;;;5099588;28;20216;-71
2023/10/28 11:29:06;;;;;;;1.23;1.10;;;19.60;79.70;;;;;;5099390;28;20203;-71
2023/10/28 11:31:33;;;;;;;1.30;1.20;;;19.60;79.60;;;;;;5099097;28;20180;-71
2023/10/28 11:34:01;;;;;;;1.45;1.30;;;19.60;79.60;;;;;;5098963;28;20180;-71
2023/10/28 11:36:28;;;;;;;2.70;1.33;;;19.60;79.50;;;;;;5116990;28;20188;-71
2023/10/28 11:38:55;;;;;;;1.45;1.17;;;19.60;79.80;;;;;;5116966;28;20180;-71
2023/10/28 11:41:22;;;;;;;1.92;1.10;;;19.60;79.80;;;;;;5098802;28;20189;-71
2023/10/28 11:43:52;;;;;;;1.85;1.20;;;19.60;79.80;;;;;;5085217;28;20271;-71
2023/10/28 11:46:18;;;;;;;1.83;1.30;;;19.60;79.80;;;;;;5078692;28;20204;-70
2023/10/28 11:48:47;;;;;;;1.20;1.10;;;19.60;79.70;;;;;;5106483;28;20179;-70
2023/10/28 11:51:16;;;;;;;1.40;1.30;;;19.60;79.80;;;;;;5081529;28;20176;-71
2023/10/28 11:53:47;;;;;;;1.38;1.27;;;19.60;79.80;;;;;;5089926;28;20194;-71
2023/10/28 11:56:19;;;;;;;1.45;1.35;;;19.60;79.80;;;;;;5107075;28;20265;-70
2023/10/28 11:58:45;;;;;;;2.30;1.38;;;19.60;79.80;;;;;;5080846;28;20220;-70
2023/10/28 12:01:11;;;;;;;1.73;1.15;;;19.60;79.80;;;;;;5107452;28;20656;-71
2023/10/28 12:03:37;;;;;;;1.58;1.20;;;19.60;79.80;;;;;;5097941;28;20267;-71
2023/10/28 12:06:04;;;;;;;1.67;1.30;;;19.60;79.70;;;;;;5114878;28;20256;-71
2023/10/28 12:08:30;;;;;;;2.22;1.27;;;19.60;79.70;;;;;;5112148;28;20179;-71
2023/10/28 12:10:56;;;;;;;1.55;1.17;;;19.60;79.80;;;;;;5087903;28;20196;-71
2023/10/28 12:13:22;;;;;;;1.27;1.17;;;19.60;79.70;;;;;;5091225;28;20179;-71
2023/10/28 12:15:48;;;;;;;1.58;1.20;;;19.60;79.70;;;;;;5116379;28;20263;-71
2023/10/28 12:18:13;;;;;;;1.85;1.17;;;19.60;79.70;;;;;;5098284;28;20191;-71
2023/10/28 12:20:39;;;;;;;2.17;1.30;;;19.60;79.80;;;;;;5115780;28;20199;-71
2023/10/28 12:23:06;;;;;;;2.17;1.27;;;19.60;79.70;;;;;;5115543;28;20267;-71
2023/10/28 12:25:32;;;;;;;1.25;1.15;;;19.60;79.60;;;;;;5097361;28;20208;-71
2023/10/28 12:27:58;;;;;;;1.55;1.13;;;19.60;79.80;;;;;;5081053;28;20196;-71
2023/10/28 12:30:23;;;;;;;1.35;1.17;;;19.60;79.70;;;;;;5097555;28;20200;-70
2023/10/28 12:32:51;;;;;;;2.03;1.10;;;19.60;79.70;;;;;;5088057;28;20268;-71
2023/10/28 12:35:18;;;;;;;1.40;1.10;;;19.70;79.80;;;;;;5080328;28;20200;-71
2023/10/28 12:37:44;;;;;;;1.30;1.20;;;19.60;79.60;;;;;;5092746;28;20195;-71
2023/10/28 12:40:10;;;;;;;1.00;1.00;;;19.60;79.60;;;;;;5080714;28;20192;-71
2023/10/28 12:42:37;;;;;;;1.50;1.20;;;19.60;79.60;;;;;;5080686;28;20198;-71
2023/10/28 12:45:04;;;;;;;1.33;1.13;;;19.70;79.70;;;;;;5111957;28;20219;-71
2023/10/28 12:47:31;;;;;;;1.95;1.25;;;19.70;80.20;;;;;;5094139;28;20229;-71
2023/10/28 12:49:56;;;;;;;2.05;1.42;;;19.70;79.70;;;;;;5079836;28;20208;-70